MET'MAP v2.0
soon released !

Expected late october,
this new version will be
more efficient, smarter,
and hosted on a brand new
server x3 powerfull...
...and still free !


Not compatible ?
Try the mobile version !

LOG IN : | Subscribe | Disclaimer | Who is Orbifly ? |
ICAO code :
Legend : VFR Marginal VFR IFR Intensive IFR Very Intensive IFR
Visi :
Ceiling :
>= 8 km
>= 3000ft
5 to 8 km
1000 to 3000 ft
1500m to 5 km
500 to 1000 ft
800 to 1500m
200 to 500 ft
< 800m
< 200 ft

METAR - LELN Leon - 27 May 2020 19:07 UTC
Data Sources :     NOAA   


- Airport Elevation : 3006 ft
- IATA code : LEN
- No reported NOTAMs.


LELN - Leon

Latest METAR recorded : 2015/08/11 08:00 LELN 110800Z VRB02KT 9999 FEW050 23/09 Q1014
TAF TAF LELN
Valid from the 27 at 15:00 until the 28 at 00:00 UTC


271400Z 2715/2724 12007KT 9999 SCT035
PROB40
TEMPO 2715/2719 FEW045TCU

Source NOAA


MET'MAP, your aeronautical weather chart ! - Copyright ORBIFLY December 2007

Programming & Development : Alexandra Zaïnal
Co-Developer : Marc-Olivier Méhu
Technical & hardware support : Manuel Goepfert
Concept & Financing : Baudouin d'Aumeries